Time;durP1;ratioP1;P1;durP2;ratioP2;P2;SDS_P1;SDS_P2;PMS_P1;PMS_P2;Temp;Humidity;BMP_temperature;BMP_pressure;BME280_temperature;BME280_humidity;BME280_pressure;Samples;Min_cycle;Max_cycle;Signal;HPM_P1;HPM_P2
2021/04/17 00:01:01;;;;;;;22.85;14.35;;;;;;;7.20;63.22;97672.47;5031147;28;20033;-83
2021/04/17 00:03:26;;;;;;;24.35;13.82;;;;;;;7.29;63.92;97682.69;5024011;28;20083;-83
2021/04/17 00:05:52;;;;;;;18.35;11.85;;;;;;;7.25;64.20;97676.63;5045619;28;20035;-83
2021/04/17 00:08:17;;;;;;;19.95;12.15;;;;;;;7.11;63.97;97654.28;5035751;28;20152;-83
2021/04/17 00:10:43;;;;;;;21.23;11.48;;;;;;;7.15;63.62;97669.13;5006279;28;20103;-81
2021/04/17 00:13:09;;;;;;;19.50;10.48;;;;;;;7.12;64.82;97672.81;5026751;28;20037;-83
2021/04/17 00:15:35;;;;;;;17.42;10.50;;;;;;;7.08;63.83;97660.56;5013488;28;20025;-83
2021/04/17 00:18:01;;;;;;;19.80;11.10;;;;;;;7.21;66.36;97675.03;5026564;28;20048;-82
2021/04/17 00:20:26;;;;;;;17.02;11.02;;;;;;;7.16;66.60;97671.75;5026630;28;20033;-82
2021/04/17 00:22:52;;;;;;;18.02;11.10;;;;;;;7.15;66.16;97669.13;5034344;28;20052;-82
2021/04/17 00:25:17;;;;;;;16.70;9.77;;;;;;;7.20;65.08;97667.16;5024976;28;20028;-83
2021/04/17 00:27:43;;;;;;;16.98;10.48;;;;;;;7.19;67.30;97652.97;5018936;28;20512;-82
2021/04/17 00:30:09;;;;;;;17.73;11.32;;;;;;;7.19;66.55;97665.41;5024589;28;20420;-82
2021/04/17 00:32:34;;;;;;;17.65;11.50;;;;;;;7.23;66.67;97656.38;5032596;28;20119;-81
2021/04/17 00:35:00;;;;;;;19.27;11.25;;;;;;;7.15;68.01;97650.53;5048050;28;20553;-82
2021/04/17 00:37:25;;;;;;;21.67;11.38;;;;;;;7.21;67.22;97664.41;5021405;28;20020;-82
2021/04/17 00:39:51;;;;;;;19.63;10.15;;;;;;;7.13;67.85;97653.28;5028712;28;20484;-81
2021/04/17 00:42:17;;;;;;;18.67;9.07;;;;;;;7.11;66.97;97635.66;5033454;28;20112;-82
2021/04/17 00:44:42;;;;;;;15.88;10.60;;;;;;;7.13;66.40;97628.47;5030705;28;20021;-83
2021/04/17 00:47:09;;;;;;;16.45;10.95;;;;;;;7.13;66.57;97633.78;5024474;28;20044;-83
2021/04/17 00:49:35;;;;;;;14.40;9.73;;;;;;;7.14;69.47;97649.66;5046658;28;20030;-82
2021/04/17 00:52:00;;;;;;;15.90;10.32;;;;;;;7.07;70.53;97642.91;5018368;28;20394;-83
2021/04/17 00:54:26;;;;;;;17.42;9.95;;;;;;;7.14;69.49;97651.47;5030536;28;20045;-82
2021/04/17 00:56:52;;;;;;;16.25;10.35;;;;;;;7.18;69.27;97640.59;5022085;28;20506;-82
2021/04/17 00:59:18;;;;;;;15.80;9.35;;;;;;;7.19;68.48;97638.81;5008357;28;20488;-83
2021/04/17 01:01:44;;;;;;;17.48;9.98;;;;;;;7.16;70.27;97644.28;5006060;28;21668;-82
2021/04/17 01:04:15;;;;;;;19.63;11.68;;;;;;;7.14;71.25;97640.84;5039927;28;20020;-82
2021/04/17 01:07:02;;;;;;;19.52;10.48;;;;;;;7.07;70.33;97640.25;5032531;28;20111;-82
2021/04/17 01:09:43;;;;;;;21.95;11.77;;;;;;;7.01;71.49;97628.09;5024657;28;20075;-82
2021/04/17 01:12:21;;;;;;;18.20;11.88;;;;;;;7.05;70.29;97610.19;5023378;28;20532;-83
2021/04/17 01:14:49;;;;;;;22.33;12.60;;;;;;;7.00;69.96;97601.56;5007775;28;20033;-84
2021/04/17 01:17:16;;;;;;;20.20;11.50;;;;;;;7.08;70.80;97610.06;5033798;28;20084;-85
2021/04/17 01:19:47;;;;;;;21.40;10.82;;;;;;;7.00;71.58;97607.78;5048475;28;20508;-85
2021/04/17 01:22:25;;;;;;;18.33;11.13;;;;;;;6.86;70.95;97609.34;5027543;28;20029;-85
2021/04/17 01:25:14;;;;;;;17.08;10.88;;;;;;;6.78;71.12;97617.66;5045354;28;20041;-86
2021/04/17 01:27:43;;;;;;;18.50;12.00;;;;;;;6.78;70.71;97608.81;5025012;28;20030;-84
2021/04/17 01:30:17;;;;;;;18.50;11.27;;;;;;;6.83;70.70;97612.16;5006557;28;20037;-86
2021/04/17 01:32:43;;;;;;;22.90;11.82;;;;;;;6.78;71.08;97607.03;5022849;28;20590;-85
2021/04/17 01:35:12;;;;;;;20.65;11.85;;;;;;;6.76;71.16;97608.91;4999007;28;20021;-85
2021/04/17 01:38:00;;;;;;;22.10;12.43;;;;;;;6.74;72.25;97610.75;5014927;28;20401;-85
2021/04/17 01:40:28;;;;;;;19.38;11.60;;;;;;;6.58;72.21;97584.97;5014159;28;20098;-85
2021/04/17 01:42:53;;;;;;;20.70;12.25;;;;;;;6.69;73.38;97602.13;5019139;28;20557;-85
2021/04/17 01:45:22;;;;;;;18.65;11.90;;;;;;;6.73;71.66;97608.19;5011412;28;20033;-85
2021/04/17 01:47:49;;;;;;;21.77;12.30;;;;;;;6.80;71.38;97621.09;5040317;28;20563;-85
2021/04/17 01:50:15;;;;;;;21.30;12.93;;;;;;;6.86;72.36;97615.50;5031333;28;20029;-85
2021/04/17 01:52:42;;;;;;;21.60;12.65;;;;;;;6.90;70.97;97617.09;5009149;28;20041;-85
2021/04/17 01:55:08;;;;;;;20.10;12.57;;;;;;;6.76;71.90;97592.97;5003891;28;20123;-85
2021/04/17 01:57:34;;;;;;;31.15;12.93;;;;;;;6.85;71.28;97603.16;5016260;28;20035;-85
2021/04/17 02:00:00;;;;;;;20.80;12.32;;;;;;;6.89;69.94;97610.03;5015067;28;20026;-83
2021/04/17 02:02:25;;;;;;;20.73;12.93;;;;;;;6.95;71.07;97625.72;5030929;28;20033;-82
2021/04/17 02:04:54;;;;;;;26.40;13.13;;;;;;;6.99;71.42;97629.97;5025589;28;20408;-84
2021/04/17 02:07:19;;;;;;;23.45;12.77;;;;;;;6.94;70.35;97626.66;5034959;28;20574;-85
2021/04/17 02:09:48;;;;;;;26.92;13.43;;;;;;;7.06;69.87;97620.78;5016103;28;20033;-85
2021/04/17 02:12:13;;;;;;;22.02;13.18;;;;;;;7.02;69.78;97616.53;5019498;28;20032;-85
2021/04/17 02:14:39;;;;;;;23.67;14.38;;;;;;;7.04;70.94;97603.16;5021599;28;20112;-85
2021/04/17 02:17:17;;;;;;;35.05;18.50;;;;;;;7.14;70.68;97614.25;5021679;28;20046;-85
2021/04/17 02:19:57;;;;;;;28.73;12.35;;;;;;;7.04;70.25;97597.84;5039866;28;20481;-85
2021/04/17 02:22:24;;;;;;;24.05;14.88;;;;;;;7.06;70.10;97595.97;5026707;28;20028;-85
2021/04/17 02:24:51;;;;;;;20.60;11.07;;;;;;;7.08;68.94;97597.63;5008375;28;20030;-85
2021/04/17 02:27:17;;;;;;;17.40;9.93;;;;;;;7.14;67.09;97611.59;5027067;28;20571;-85
2021/04/17 02:29:42;;;;;;;16.70;8.93;;;;;;;7.02;65.28;97610.34;5022970;28;20052;-85
2021/04/17 02:32:15;;;;;;;14.52;8.13;;;;;;;7.01;65.65;97606.81;5033255;28;20048;-85
2021/04/17 02:34:41;;;;;;;;;;;;;;;7.13;64.59;97610.72;5008873;28;20025;-84
2021/04/17 02:37:06;;;;;;;14.10;8.40;;;;;;;7.11;65.18;97609.06;5025362;28;19913;-86
2021/04/17 02:39:32;;;;;;;16.02;9.38;;;;;;;7.16;66.13;97612.38;5013753;28;20035;-85
2021/04/17 02:41:58;;;;;;;15.48;10.25;;;;;;;7.03;65.46;97607.63;5023447;28;20033;-84
2021/04/17 02:44:23;;;;;;;15.15;9.70;;;;;;;7.11;66.30;97614.38;5028326;28;20028;-84
2021/04/17 02:46:49;;;;;;;17.48;10.00;;;;;;;7.10;68.26;97618.84;5052171;28;20024;-84
2021/04/17 02:49:14;;;;;;;17.80;10.07;;;;;;;7.05;69.03;97620.84;5014996;28;20094;-84
2021/04/17 02:51:40;;;;;;;20.05;9.75;;;;;;;6.80;69.89;97622.94;5028895;28;20091;-83
2021/04/17 02:54:06;;;;;;;14.57;9.90;;;;;;;6.56;72.09;97635.50;5020525;28;20021;-86
2021/04/17 02:56:32;;;;;;;15.30;7.95;;;;;;;6.38;70.39;97636.31;5021753;28;20021;-85
2021/04/17 02:58:57;;;;;;;12.13;7.68;;;;;;;6.18;72.68;97625.72;5033599;28;20028;-85
2021/04/17 03:01:23;;;;;;;13.50;7.43;;;;;;;6.06;72.86;97636.88;5025241;28;20461;-85
2021/04/17 03:03:48;;;;;;;11.32;7.15;;;;;;;5.68;74.31;97622.50;5034147;28;20036;-84
2021/04/17 03:06:14;;;;;;;9.02;6.55;;;;;;;5.58;73.97;97639.72;5032803;28;20537;-86
2021/04/17 03:08:39;;;;;;;11.18;6.93;;;;;;;5.52;78.11;97637.31;5017846;28;20497;-86
2021/04/17 03:11:05;;;;;;;11.82;7.50;;;;;;;5.33;79.23;97624.78;5036493;28;20462;-85
2021/04/17 03:13:30;;;;;;;12.88;7.47;;;;;;;5.26;77.78;97639.22;5037473;28;20021;-86
2021/04/17 03:15:56;;;;;;;11.90;7.70;;;;;;;5.12;79.55;97619.47;5010900;28;20025;-85
2021/04/17 03:18:22;;;;;;;19.42;8.68;;;;;;;5.04;83.17;97626.88;5033937;28;20054;-85
2021/04/17 03:20:48;;;;;;;14.40;8.95;;;;;;;5.16;85.15;97651.13;5008993;28;20031;-85
2021/04/17 03:23:14;;;;;;;14.98;9.75;;;;;;;5.13;88.21;97631.81;5016778;28;20031;-85
2021/04/17 03:25:39;;;;;;;19.70;10.75;;;;;;;5.32;88.81;97648.75;5015700;28;20025;-86
2021/04/17 03:28:05;;;;;;;12.52;9.10;;;;;;;5.36;86.97;97645.88;5019777;28;20419;-86
2021/04/17 03:30:30;;;;;;;13.68;9.07;;;;;;;5.21;86.96;97622.63;5006405;28;20091;-85
2021/04/17 03:33:00;;;;;;;14.65;9.55;;;;;;;5.29;86.30;97643.56;5024737;28;20031;-85
2021/04/17 03:35:26;;;;;;;16.48;10.50;;;;;;;5.11;87.85;97644.25;5012573;28;20059;-85
2021/04/17 03:37:52;;;;;;;19.25;12.60;;;;;;;5.13;90.19;97651.25;5027671;28;20112;-84
2021/04/17 03:40:19;;;;;;;20.67;12.35;;;;;;;5.16;90.90;97637.00;5008316;28;20021;-85
2021/04/17 03:42:44;;;;;;;20.77;13.02;;;;;;;5.15;91.16;97635.25;5010755;28;20108;-85
2021/04/17 03:45:11;;;;;;;16.85;11.15;;;;;;;5.15;92.69;97644.09;5025129;28;20546;-85
2021/04/17 03:47:37;;;;;;;17.92;11.88;;;;;;;5.04;93.99;97642.78;5015793;28;20505;-85
2021/04/17 03:50:05;;;;;;;17.42;11.55;;;;;;;5.05;95.27;97640.06;5034371;28;20086;-85
2021/04/17 03:52:30;;;;;;;18.75;11.77;;;;;;;5.00;94.94;97639.38;4999515;28;20048;-84
2021/04/17 03:54:56;;;;;;;17.55;10.32;;;;;;;4.99;91.69;97639.41;4998476;28;20022;-85
2021/04/17 03:57:22;;;;;;;18.60;12.43;;;;;;;5.02;94.82;97644.59;5002519;28;20104;-85
2021/04/17 03:59:47;;;;;;;19.77;11.18;;;;;;;5.07;95.33;97651.47;5052028;28;20029;-85
2021/04/17 04:02:13;;;;;;;18.13;11.25;;;;;;;5.14;93.97;97662.69;5017044;28;20025;-85
2021/04/17 04:04:39;;;;;;;17.73;9.88;;;;;;;5.14;92.25;97655.59;5012990;28;20029;-85
2021/04/17 04:07:06;;;;;;;19.58;12.02;;;;;;;5.12;89.94;97640.69;5011433;28;20053;-85
2021/04/17 04:09:32;;;;;;;22.73;13.57;;;;;;;5.19;91.10;97647.50;5006334;28;20556;-85
2021/04/17 04:11:57;;;;;;;20.80;12.60;;;;;;;5.26;94.38;97654.28;5027518;28;20056;-84
2021/04/17 04:14:24;;;;;;;17.40;11.48;;;;;;;5.28;91.58;97648.00;5007102;28;20033;-77
2021/04/17 04:16:49;;;;;;;17.33;10.23;;;;;;;5.30;90.31;97655.88;4990803;28;20050;-83
2021/04/17 04:19:15;;;;;;;21.17;11.30;;;;;;;5.28;89.04;97652.44;5008903;28;20036;-84
2021/04/17 04:21:41;;;;;;;22.25;12.43;;;;;;;5.29;90.92;97644.41;4996065;28;20080;-82
2021/04/17 04:24:07;;;;;;;21.75;13.30;;;;;;;5.30;91.80;97648.78;5004563;28;20057;-83
2021/04/17 04:26:33;;;;;;;17.05;10.90;;;;;;;5.30;91.27;97647.91;5023653;28;20488;-83
2021/04/17 04:28:59;;;;;;;25.85;12.63;;;;;;;5.41;92.81;97654.50;5000717;28;20037;-83
2021/04/17 04:31:24;;;;;;;19.95;11.95;;;;;;;5.46;91.39;97646.38;4994634;28;20033;-84
2021/04/17 04:33:50;;;;;;;51.85;28.17;;;;;;;5.36;93.94;97637.06;5007309;28;20030;-84
2021/04/17 04:36:15;;;;;;;28.33;18.17;;;;;;;5.40;95.89;97643.97;5021922;28;20033;-84
2021/04/17 04:38:41;;;;;;;20.15;12.95;;;;;;;5.44;95.86;97627.03;5007803;28;20401;-83
2021/04/17 04:41:07;;;;;;;16.45;11.40;;;;;;;5.42;93.43;97634.16;4998958;28;20026;-84
2021/04/17 04:43:32;;;;;;;20.80;12.20;;;;;;;5.57;93.71;97649.47;4994867;28;20030;-85
2021/04/17 04:45:58;;;;;;;20.45;12.32;;;;;;;5.43;92.82;97642.06;5020686;28;20021;-85
2021/04/17 04:48:24;;;;;;;21.10;13.57;;;;;;;5.51;94.10;97662.97;5004884;28;20072;-84
2021/04/17 04:50:49;;;;;;;25.45;13.38;;;;;;;5.45;95.06;97652.59;5011117;28;20099;-83
2021/04/17 04:53:15;;;;;;;20.77;13.02;;;;;;;5.40;93.61;97646.63;5016162;28;20033;-84
2021/04/17 04:55:41;;;;;;;20.42;12.95;;;;;;;5.51;95.03;97657.66;4995821;28;20486;-84
2021/04/17 04:58:06;;;;;;;20.10;12.30;;;;;;;5.55;91.76;97651.31;4999165;28;20034;-83
2021/04/17 05:00:32;;;;;;;21.77;14.13;;;;;;;5.55;93.62;97645.16;4989249;28;20026;-83
2021/04/17 05:02:57;;;;;;;20.77;13.90;;;;;;;5.61;95.39;97640.47;5003847;28;20040;-84
2021/04/17 05:05:23;;;;;;;25.08;13.82;;;;;;;5.61;93.60;97642.25;5001076;28;20050;-83
2021/04/17 05:07:49;;;;;;;27.85;17.00;;;;;;;5.60;93.95;97644.03;5004681;28;20040;-83
2021/04/17 05:10:14;;;;;;;28.73;16.83;;;;;;;5.67;95.17;97645.50;5005314;28;20033;-83
2021/04/17 05:12:40;;;;;;;32.83;20.95;;;;;;;5.56;91.54;97647.75;4994206;28;20075;-83
2021/04/17 05:15:06;;;;;;;30.88;18.60;;;;;;;5.32;91.78;97622.22;5013958;28;20025;-83
2021/04/17 05:17:32;;;;;;;26.83;17.30;;;;;;;5.45;94.05;97628.75;4987920;28;20046;-83
2021/04/17 05:19:57;;;;;;;25.00;14.98;;;;;;;5.55;92.94;97635.41;5022748;28;20110;-83
2021/04/17 05:22:23;;;;;;;28.40;15.50;;;;;;;5.57;91.94;97632.72;5006859;28;20460;-83
2021/04/17 05:24:50;;;;;;;28.27;16.35;;;;;;;5.53;93.08;97613.41;5013984;28;20488;-83
2021/04/17 05:27:16;;;;;;;45.67;22.00;;;;;;;5.75;93.54;97642.56;4990377;28;20433;-83
2021/04/17 05:29:42;;;;;;;49.17;23.45;;;;;;;5.71;91.03;97631.22;5005678;28;20033;-83
2021/04/17 05:32:08;;;;;;;29.10;16.17;;;;;;;5.80;88.08;97622.88;5003828;28;20073;-83
2021/04/17 05:34:34;;;;;;;33.20;17.45;;;;;;;5.82;89.05;97633.41;5000257;28;20521;-82
2021/04/17 05:37:00;;;;;;;27.85;16.80;;;;;;;5.78;89.32;97622.03;5025184;28;20465;-83
2021/04/17 05:39:27;;;;;;;34.85;18.20;;;;;;;5.93;87.84;97628.56;5012023;28;20036;-83
2021/04/17 05:41:53;;;;;;;38.50;21.48;;;;;;;5.89;87.75;97630.47;5010462;28;20160;-83
2021/04/17 05:44:18;;;;;;;27.38;15.38;;;;;;;5.89;87.05;97630.47;4995098;28;20038;-83
2021/04/17 05:46:44;;;;;;;24.73;13.95;;;;;;;6.00;86.49;97630.88;4983465;28;20037;-84
2021/04/17 05:49:11;;;;;;;29.65;16.58;;;;;;;6.06;87.10;97628.91;5007667;28;20052;-84
2021/04/17 05:51:38;;;;;;;23.67;14.05;;;;;;;6.13;86.80;97627.69;5003685;28;20041;-84
2021/04/17 05:54:05;;;;;;;21.17;12.60;;;;;;;6.14;85.71;97621.47;5005674;28;20121;-83
2021/04/17 05:56:30;;;;;;;21.77;14.25;;;;;;;6.18;86.70;97617.75;5008540;28;20117;-83
2021/04/17 05:58:56;;;;;;;26.92;16.08;;;;;;;6.25;87.05;97628.03;5008629;28;20057;-84
2021/04/17 06:01:22;;;;;;;23.08;13.35;;;;;;;6.20;87.94;97623.84;4995847;28;20037;-84
2021/04/17 06:03:48;;;;;;;20.42;13.45;;;;;;;6.30;85.92;97622.53;5010569;28;20495;-84
2021/04/17 06:06:13;;;;;;;24.77;14.27;;;;;;;6.29;87.60;97620.78;5022928;28;20041;-84
2021/04/17 06:08:39;;;;;;;28.80;15.48;;;;;;;6.23;86.16;97619.28;4995506;28;20052;-84
2021/04/17 06:11:06;;;;;;;34.97;15.90;;;;;;;6.17;86.52;97613.34;5002051;28;20056;-84
2021/04/17 06:13:32;;;;;;;32.53;15.07;;;;;;;6.08;87.02;97616.41;5003272;28;20452;-83
2021/04/17 06:15:59;;;;;;;32.83;17.38;;;;;;;6.07;87.63;97617.34;5007284;28;20091;-84
2021/04/17 06:18:25;;;;;;;29.00;15.73;;;;;;;6.17;88.03;97624.84;5040644;28;20038;-84
2021/04/17 06:20:50;;;;;;;46.08;22.42;;;;;;;6.15;88.93;97626.72;5017186;28;20406;-84
2021/04/17 06:23:16;;;;;;;80.30;34.25;;;;;;;6.25;87.64;97621.84;5052119;28;20032;-84
2021/04/17 06:25:42;;;;;;;58.17;28.33;;;;;;;6.22;90.42;97614.00;5013392;28;20030;-83
2021/04/17 06:28:10;;;;;;;35.10;20.48;;;;;;;6.17;88.65;97629.28;5019419;28;20429;-84
2021/04/17 06:30:36;;;;;;;58.88;32.15;;;;;;;6.25;89.12;97620.06;5022239;28;20028;-83
2021/04/17 06:33:01;;;;;;;42.58;25.15;;;;;;;6.31;89.88;97617.13;5043031;28;20422;-84
2021/04/17 06:35:27;;;;;;;27.95;17.05;;;;;;;6.29;90.29;97596.88;5023633;28;20028;-83
2021/04/17 06:37:53;;;;;;;39.05;21.80;;;;;;;6.45;89.82;97601.47;5015200;28;20032;-83
2021/04/17 06:40:19;;;;;;;27.42;16.58;;;;;;;6.53;88.84;97611.72;5011888;28;20059;-85
2021/04/17 06:42:48;;;;;;;19.77;12.23;;;;;;;6.39;87.13;97611.50;5044586;28;20049;-83
2021/04/17 06:45:14;;;;;;;21.00;13.20;;;;;;;6.20;86.98;97610.56;5009271;28;20030;-84
2021/04/17 06:47:40;;;;;;;18.98;12.13;;;;;;;6.18;87.01;97605.34;5020738;28;20103;-83
2021/04/17 06:50:08;;;;;;;19.63;12.32;;;;;;;6.24;86.61;97609.50;5017329;28;20021;-84
2021/04/17 06:52:58;;;;;;;24.13;14.27;;;;;;;6.30;87.45;97614.56;5020656;28;20090;-86
2021/04/17 06:55:24;;;;;;;21.55;14.23;;;;;;;6.29;89.49;97591.56;5025973;28;20392;-83
2021/04/17 06:57:49;;;;;;;20.88;13.38;;;;;;;6.39;86.05;97599.06;5009234;28;20025;-87
2021/04/17 07:00:19;;;;;;;20.25;13.10;;;;;;;6.46;84.79;97597.84;5010846;28;20456;-86
2021/04/17 07:02:53;;;;;;;22.55;13.88;;;;;;;6.53;85.71;97603.75;5020326;28;20025;-85
2021/04/17 07:05:19;;;;;;;24.10;13.10;;;;;;;6.39;85.88;97587.59;5008813;28;20033;-83
2021/04/17 07:07:49;;;;;;;28.15;16.02;;;;;;;6.24;85.19;97524.53;5007955;28;20497;-83
2021/04/17 07:10:17;;;;;;;22.80;13.90;;;;;;;6.89;84.55;97588.78;5007649;28;20405;-85
2021/04/17 07:12:45;;;;;;;25.63;15.02;;;;;;;7.06;84.90;97585.34;5007996;28;20047;-83
2021/04/17 07:15:14;;;;;;;19.92;13.13;;;;;;;7.16;81.93;97575.13;5001194;28;20485;-83
2021/04/17 07:17:40;;;;;;;24.15;15.25;;;;;;;7.23;83.08;97581.88;5044280;28;20045;-84
2021/04/17 07:20:13;;;;;;;25.05;15.80;;;;;;;7.35;82.36;97591.94;5010698;28;20546;-83
2021/04/17 07:22:39;;;;;;;;;;;;;;;7.20;80.52;97590.00;5030411;28;20031;-83
2021/04/17 07:25:05;;;;;;;35.42;14.82;;;;;;;7.00;79.97;97583.84;5035963;28;19936;-82
2021/04/17 07:27:33;;;;;;;25.33;14.35;;;;;;;6.99;81.38;97590.06;5016314;28;20025;-84
2021/04/17 07:30:20;;;;;;;24.48;14.43;;;;;;;6.93;81.37;97589.50;5014871;28;20036;-84
2021/04/17 07:33:04;;;;;;;20.60;12.52;;;;;;;7.11;82.97;97577.16;5034083;28;20033;-84
2021/04/17 07:35:47;;;;;;;35.58;18.60;;;;;;;7.19;81.99;97564.34;5007989;28;20404;-84
2021/04/17 07:38:14;;;;;;;19.48;11.70;;;;;;;7.58;77.58;97581.00;5016056;28;20504;-83
2021/04/17 07:40:42;;;;;;;23.52;14.68;;;;;;;7.67;78.05;97567.25;5020822;28;20025;-83
2021/04/17 07:43:07;;;;;;;20.38;12.48;;;;;;;7.57;79.12;97582.81;5015935;28;20464;-83
2021/04/17 07:45:40;;;;;;;20.45;12.20;;;;;;;7.39;79.93;97573.06;5003164;28;20025;-83
2021/04/17 07:48:27;;;;;;;17.48;11.55;;;;;;;7.37;77.67;97569.63;5035620;28;20037;-82
2021/04/17 07:50:54;;;;;;;19.23;12.32;;;;;;;7.41;78.80;97573.84;4999560;28;20029;-83
2021/04/17 07:53:40;;;;;;;18.45;10.65;;;;;;;7.13;75.55;97538.03;5008273;28;20408;-83
2021/04/17 07:56:27;;;;;;;18.05;10.38;;;;;;;7.24;76.56;97581.78;5008356;28;20064;-83
2021/04/17 07:59:10;;;;;;;17.70;11.23;;;;;;;7.18;76.08;97563.47;5037177;28;20032;-83
2021/04/17 08:01:38;;;;;;;22.75;12.68;;;;;;;7.17;74.48;97539.63;5027963;28;20029;-83
2021/04/17 08:04:07;;;;;;;19.60;13.15;;;;;;;6.90;75.29;97486.81;5012164;28;20040;-82
2021/04/17 08:06:33;;;;;;;25.45;15.95;;;;;;;6.92;77.43;97514.19;5040378;28;20029;-82
2021/04/17 08:08:59;;;;;;;23.65;15.15;;;;;;;7.21;76.84;97562.44;4998561;28;20500;-84
2021/04/17 08:11:35;;;;;;;25.63;16.98;;;;;;;7.03;79.23;97570.41;5016585;28;20033;-82
2021/04/17 08:14:09;;;;;;;28.98;19.20;;;;;;;7.34;79.61;97568.91;5008260;28;20036;-82
2021/04/17 08:17:21;;;;;;;37.75;20.60;;;;;;;7.39;79.99;97572.19;5000601;28;20071;-83
2021/04/17 08:20:20;;;;;;;45.15;25.10;;;;;;;7.47;77.64;97540.78;5027220;28;20412;-82
2021/04/17 08:22:52;;;;;;;34.13;19.13;;;;;;;7.69;77.95;97562.69;4999763;28;20021;-82
2021/04/17 08:26:10;;;;;;;31.15;19.45;;;;;;;7.60;75.55;97565.81;4948581;28;20055;-83
2021/04/17 08:30:27;;;;;;;30.58;17.80;;;;;;;7.55;74.10;97526.13;4936674;27;20201;-84
2021/04/17 08:37:07;;;;;;;34.73;18.37;;;;;;;7.82;76.49;97542.50;5107880;28;20036;-83
2021/04/17 08:39:36;;;;;;;34.90;18.98;;;;;;;7.91;75.12;97568.66;5075137;28;20016;-83
2021/04/17 08:42:17;;;;;;;33.55;20.67;;;;;;;7.72;74.21;97538.56;5089114;28;20036;-83
2021/04/17 08:44:46;;;;;;;38.08;23.02;;;;;;;7.62;76.77;97550.66;5069174;28;20028;-84
2021/04/17 08:47:15;;;;;;;492.83;217.55;;;;;;;7.78;76.57;97553.41;5057778;28;20046;-83
2021/04/17 08:49:51;;;;;;;139.60;65.72;;;;;;;7.83;77.39;97552.22;5065920;28;20039;-85
2021/04/17 08:52:21;;;;;;;45.55;25.35;;;;;;;7.96;76.22;97557.78;5091034;28;20024;-83
2021/04/17 08:55:02;;;;;;;50.22;28.80;;;;;;;7.68;76.77;97557.47;5071418;28;20486;-83
2021/04/17 08:57:28;;;;;;;46.42;27.00;;;;;;;7.47;78.55;97543.44;5077198;28;20032;-83
2021/04/17 09:00:02;;;;;;;49.30;29.65;;;;;;;7.67;76.80;97537.09;5080370;28;20027;-84
2021/04/17 09:02:29;;;;;;;48.78;25.20;;;;;;;7.82;76.08;97539.84;5074392;28;20411;-84
2021/04/17 09:04:58;;;;;;;33.28;21.45;;;;;;;7.92;74.11;97541.09;5057739;28;20554;-83
2021/04/17 09:07:31;;;;;;;40.88;22.73;;;;;;;7.71;75.53;97531.56;5099674;28;20024;-84
2021/04/17 09:10:30;;;;;;;38.63;21.67;;;;;;;7.90;74.52;97529.69;5060072;28;20020;-84
2021/04/17 09:19:51;;;;;;;44.47;23.42;;;;;;;8.07;73.45;97537.63;5106824;28;20046;-84
2021/04/17 09:22:31;;;;;;;48.90;28.98;;;;;;;8.23;75.56;97539.50;5089946;28;20024;-83
2021/04/17 09:25:12;;;;;;;49.03;24.80;;;;;;;8.24;74.95;97501.25;5084907;28;20566;-84
2021/04/17 09:27:50;;;;;;;34.20;20.73;;;;;;;8.63;72.96;97513.31;5067409;28;20170;-85
2021/04/17 09:30:19;;;;;;;37.15;22.35;;;;;;;8.88;72.48;97506.63;5063462;28;20024;-84
2021/04/17 09:32:58;;;;;;;26.98;16.00;;;;;;;8.62;71.76;97510.72;5074207;28;20044;-83
2021/04/17 09:35:28;;;;;;;72.72;34.33;;;;;;;8.89;69.37;97519.88;5075796;28;20052;-83
2021/04/17 09:37:54;;;;;;;25.92;13.63;;;;;;;8.72;69.44;97517.28;5082905;28;20020;-82
2021/04/17 09:40:29;;;;;;;27.23;17.77;;;;;;;8.65;71.55;97513.22;5091649;28;20027;-83
2021/04/17 09:42:54;;;;;;;239.55;110.65;;;;;;;8.47;71.45;97507.09;5063978;28;20028;-82
2021/04/17 09:45:29;;;;;;;25.30;15.38;;;;;;;8.34;72.33;97505.16;5050496;28;20107;-84
2021/04/17 09:47:59;;;;;;;28.90;15.85;;;;;;;8.36;71.49;97497.97;5047510;28;20024;-84
2021/04/17 09:50:27;;;;;;;19.83;12.70;;;;;;;8.51;72.09;97499.81;5039868;28;20028;-84
2021/04/17 09:52:53;;;;;;;29.65;16.58;;;;;;;8.62;71.40;97497.41;5052315;28;20036;-84
2021/04/17 09:55:19;;;;;;;30.85;16.65;;;;;;;8.85;70.93;97475.66;5044612;28;20105;-84
2021/04/17 09:57:46;;;;;;;65.22;30.58;;;;;;;9.03;69.03;97479.09;5042558;28;20020;-84
2021/04/17 10:00:12;;;;;;;38.58;14.55;;;;;;;9.23;68.62;97487.66;5044823;28;20067;-85
2021/04/17 10:02:42;;;;;;;25.13;14.30;;;;;;;8.70;70.77;97482.69;5053126;28;20028;-83
2021/04/17 10:05:09;;;;;;;22.20;13.32;;;;;;;8.99;70.17;97478.41;5049759;28;20417;-83
2021/04/17 10:07:47;;;;;;;25.58;14.43;;;;;;;9.13;69.17;97480.28;5052420;28;20486;-83
2021/04/17 10:10:13;;;;;;;21.60;12.40;;;;;;;8.66;68.33;97469.63;5070580;28;20032;-82
2021/04/17 10:12:54;;;;;;;23.33;13.10;;;;;;;8.72;69.60;97471.97;5048871;28;20027;-84
2021/04/17 10:15:26;;;;;;;43.15;19.67;;;;;;;8.56;71.62;97461.28;5048588;28;20385;-83
2021/04/17 10:17:53;;;;;;;25.48;14.15;;;;;;;8.78;72.09;97479.63;5065705;28;20028;-84
2021/04/17 10:20:20;;;;;;;22.40;13.27;;;;;;;8.51;71.63;97471.34;5053898;28;20020;-84
2021/04/17 10:22:59;;;;;;;21.80;13.25;;;;;;;8.41;71.94;97464.78;5066229;28;20512;-83
2021/04/17 10:25:42;;;;;;;23.45;13.43;;;;;;;8.47;72.92;97490.25;5047434;28;20411;-82
2021/04/17 10:28:17;;;;;;;19.00;12.18;;;;;;;8.48;70.03;97481.31;5042623;28;20093;-82
2021/04/17 10:30:45;;;;;;;15.70;9.63;;;;;;;8.51;70.31;97482.00;5071518;28;20060;-83
2021/04/17 10:33:15;;;;;;;21.23;10.88;;;;;;;8.66;69.92;97480.28;5045418;28;20462;-83
2021/04/17 10:35:41;;;;;;;18.50;9.95;;;;;;;8.31;71.55;97492.00;5061445;28;20036;-84
2021/04/17 10:38:07;;;;;;;16.70;11.13;;;;;;;8.41;69.70;97474.59;5052075;28;20020;-84
2021/04/17 10:40:32;;;;;;;18.08;11.93;;;;;;;8.45;71.10;97476.16;5064631;28;20169;-84
2021/04/17 10:43:03;;;;;;;14.82;9.63;;;;;;;8.59;71.16;97469.09;5052859;28;20546;-84
2021/04/17 10:45:28;;;;;;;20.77;13.30;;;;;;;8.82;70.82;97475.84;5041175;28;20028;-84
2021/04/17 10:48:06;;;;;;;25.27;13.45;;;;;;;9.03;69.99;97474.63;5067331;28;20024;-85
2021/04/17 10:50:35;;;;;;;29.23;14.48;;;;;;;8.88;69.25;97453.28;5067620;28;20051;-85
2021/04/17 10:53:05;;;;;;;22.30;14.35;;;;;;;8.98;68.36;97474.00;5048474;28;20107;-83
2021/04/17 10:55:32;;;;;;;25.88;13.20;;;;;;;8.86;68.53;97466.69;5080538;28;20598;-83
2021/04/17 10:57:58;;;;;;;21.00;11.18;;;;;;;8.89;68.27;97476.34;5065609;28;20404;-83
2021/04/17 11:00:31;;;;;;;80.97;36.33;;;;;;;8.71;72.15;97459.56;5052315;28;20028;-83
2021/04/17 11:02:58;;;;;;;30.27;14.75;;;;;;;8.54;72.09;97452.53;5062374;28;20031;-83
2021/04/17 11:05:34;;;;;;;20.08;12.80;;;;;;;8.24;71.63;97472.81;5061566;28;20025;-83
2021/04/17 11:08:01;;;;;;;25.77;14.88;;;;;;;8.06;71.24;97458.66;5043777;28;20039;-84
2021/04/17 11:10:36;;;;;;;38.20;16.17;;;;;;;8.15;72.70;97463.50;5051770;28;20026;-84
2021/04/17 11:13:04;;;;;;;25.92;13.18;;;;;;;8.23;73.02;97471.09;5043629;28;20089;-84
2021/04/17 11:15:30;;;;;;;19.95;11.32;;;;;;;8.22;71.66;97473.81;5044788;28;20024;-84
2021/04/17 11:18:19;;;;;;;17.30;11.07;;;;;;;8.29;72.21;97459.25;5044251;28;20028;-84
2021/04/17 11:20:59;;;;;;;103.18;52.63;;;;;;;8.50;71.44;97471.41;5046358;28;20036;-85
2021/04/17 11:23:41;;;;;;;26.33;13.25;;;;;;;8.43;71.81;97456.72;5062208;28;20115;-85
2021/04/17 11:26:09;;;;;;;18.67;11.60;;;;;;;8.32;73.66;97464.44;5042239;28;20032;-84
2021/04/17 11:28:35;;;;;;;21.02;12.63;;;;;;;8.24;72.86;97455.97;5050959;28;20024;-83
2021/04/17 11:31:13;;;;;;;16.20;11.63;;;;;;;8.03;73.62;97441.97;5052890;28;20074;-84
2021/04/17 11:33:38;;;;;;;17.33;10.68;;;;;;;7.99;73.34;97441.31;5048840;28;20049;-86
2021/04/17 11:36:04;;;;;;;17.10;11.40;;;;;;;8.11;73.69;97424.66;5052528;28;20056;-83
2021/04/17 11:38:39;;;;;;;21.13;11.02;;;;;;;7.95;75.40;97434.41;5051222;28;20510;-86
2021/04/17 11:41:07;;;;;;;27.90;15.32;;;;;;;7.74;74.04;97382.31;5043531;28;20524;-83
2021/04/17 11:43:33;;;;;;;22.30;11.65;;;;;;;8.19;73.59;97432.22;5043759;28;20039;-84
2021/04/17 11:45:59;;;;;;;14.80;10.20;;;;;;;8.07;73.94;97423.09;5043751;28;20040;-83
2021/04/17 11:48:25;;;;;;;16.05;10.32;;;;;;;8.31;73.43;97423.59;5040734;28;20028;-85